Runway excursion Serious incident Bombardier DHC-8-402Q Dash 8 9H-LWB,
ASN logo
ASN Wikibase Occurrence # 386880
 
This information is added by users of ASN. Neither ASN nor the Flight Safety Foundation are responsible for the completeness or correctness of this information. If you feel this information is incomplete or incorrect, you can submit corrected information.

Date:Tuesday 23 April 2024
Time:17:43 UTC
Type:Silhouette image of generic DH8D model; specific model in this crash may look slightly different    
Bombardier DHC-8-402Q Dash 8
Owner/operator:Aurigny Air Services, opb Luxwing
Registration: 9H-LWB
MSN: 4332
Year of manufacture:2010
Engine model:Pratt and Whitney Canada PW150A
Fatalities:Fatalities: 0 / Occupants: 67
Aircraft damage: None
Category:Serious incident
Location:Guernsey Airport, Channel Islands (GCI/EGJB) -   United Kingdom
Phase: Landing
Nature:Passenger - Scheduled
Departure airport:London-Gatwick Airport (LGW/EGKK)
Destination airport:Guernsey Airport, Channel Islands (GCI/EGJB)
Investigating agency: AAIB
Confidence Rating: Information is only available from news, social media or unofficial sources
Narrative:
Aurigny Air Services flight GR609, a DHC-8-402Q, overran runway 27 on landing at Guernsey.
No damage was reported to the aircraft, which was towed to the apron shortly after 20:30 LT (19:30 UTC).

Runway 27 is a 1583 x 45 m asphalt runway.

METAR:

Weather about the incident time (1743Z):
EGJB 231750Z 30005KT 9999 FEW010 SCT018 10/08 Q1022
EGJB 231720Z 30006KT 9999 FEW013 SCT018 10/08 Q1022
EGJB 231650Z 33005KT 9999 -RA FEW013 SCT018 BKN023 09/07 Q1022

Sources:

https://www.islandfm.com/news/guernsey/aurigny-flight-overshoots-guernsey-airport-runway/
https://www.bbc.com/news/world-europe-guernsey-68886071
https://www.flightradar24.com/data/flights/gr609#34e65ab8

Revision history:

Date/timeContributorUpdates
23-Apr-2024 18:42 ASN Added
23-Apr-2024 18:43 ASN Updated [Operator, Location, Source, Narrative]
23-Apr-2024 18:45 ASN Updated [Narrative]
24-Apr-2024 05:38 ASN Updated [Total occupants, Source, Damage, Narrative]

Corrections or additions? ... Edit this accident description

The Aviation Safety Network is an exclusive service provided by:
Quick Links:

CONNECT WITH US: FSF on social media FSF Facebook FSF Twitter FSF Youtube FSF LinkedIn FSF Instagram

©2024 Flight Safety Foundation

1920 Ballenger Av, 4th Fl.
Alexandria, Virginia 22314
www.FlightSafety.org